• Join FlightAware (Why Join?)
  • Login
  • US Flag 
07:12AM EDT


 

Airport Tracker/Info


-or-


 

Live Flight TrackerFlight Track Log ✈ EGF2928 ✈ 13-May-2013 ✈ KDFW - KMGM

Flight Track Log - Related Links

Times and Time Zones

All times are in EDT time to prevent confusion due to time zone crossing. See the EGF2928 flight status page for this flight to view local times or setup timezone preferences in your user account.

Time Position Orientation Groundspeed Altitude Reporting Facility
EDT Latitude Longitude Course Direction KTS MPH feet Rate Location/Type
10:09AM 32.8833 -97.0333 68° East 167 192 1,300  Level Dallas / Fort Worth TRACON
10:10AM 32.8333 -97.0333 180° South 213 245 3,400 1,980 Climbing Dallas / Fort Worth TRACON
10:11AM 32.6893 -96.9630 103° East  Level FlightAware Approximate
10:11AM 32.7667 -97.0333 180° South 221 254 5,300  Level Dallas / Fort Worth TRACON
10:12AM 32.6833 -96.8271 90° East  Level FlightAware Approximate
10:12AM 32.7000 -97.0167 168° South 280 322 7,200  Level Dallas / Fort Worth TRACON
10:13AM 32.7174 -96.6980 68° East  Level FlightAware Approximate
10:13AM 32.6833 -96.9167 101° East 284 327 9,500  Level Dallas / Fort Worth TRACON
10:14AM 32.7598 -96.5708 68° East  Level FlightAware Approximate
10:14AM 32.7000 -96.8333 77° East 329 379 10,000  Level Dallas / Fort Worth TRACON
10:15AM 32.7167 -96.7167 80° East 360 414 10,000 600 Level Dallas / Fort Worth TRACON
10:16AM 32.7667 -96.6167 59° Northeast 362 417 11,300 1,440 Climbing Dallas / Fort Worth TRACON
10:16AM 32.7886 -96.5508 68° East 380 437 12,400 1,560 Climbing Fort Worth Center
10:17AM 32.8214 -96.4517 69° East 376 433 13,900 1,800 Climbing Fort Worth Center
10:18AM 32.8622 -96.3375 67° East 356 410 16,000 1,980 Climbing Fort Worth Center
10:19AM 32.8656 -96.2336 88° East 341 392 17,900 1,680 Climbing Fort Worth Center
10:20AM 32.8686 -96.1197 88° East 318 366 19,400 1,440 Climbing Fort Worth Center
10:21AM 32.8694 -96.0208 89° East 318 366 20,800 1,500 Climbing Fort Worth Center
10:22AM 32.8722 -95.8997 88° East 323 372 22,400 1,500 Climbing Fort Worth Center
10:23AM 32.8753 -95.7983 88° East 335 386 23,800 1,500 Climbing Fort Worth Center
10:24AM 32.8756 -95.6719 90° East 340 391 25,400 1,320 Climbing Fort Worth Center
10:25AM 32.8722 -95.5706 92° East 340 391 26,500 1,260 Climbing Fort Worth Center
10:26AM 32.8744 -95.4569 89° East 340 391 28,000 1,200 Climbing Fort Worth Center
10:27AM 32.8792 -95.3456 87° East 345 397 29,000 480 Climbing Fort Worth Center
10:28AM 32.8978 -95.2214 80° East 351 404 29,000  Level Fort Worth Center
10:29AM 32.9186 -95.0947 79° East 370 426 29,000  Level Fort Worth Center
10:30AM 32.9389 -94.9581 80° East 396 456 29,000  Level Fort Worth Center
10:31AM 32.9611 -94.8186 79° East 415 478 29,000  Level Fort Worth Center
10:32AM 32.9831 -94.6744 80° East 427 491 29,000  Level Fort Worth Center
10:33AM 33.0050 -94.5350 79° East 433 498 29,000  Level Fort Worth Center
10:34AM 33.0247 -94.3908 81° East 433 498 29,000  Level Fort Worth Center
10:35AM 33.0442 -94.2489 81° East 433 498 29,000  Level Fort Worth Center
10:36AM 33.0656 -94.1067 80° East 433 498 29,000  Level Fort Worth Center
10:37AM 33.0883 -93.9472 80° East 433 498 29,000  Level Fort Worth Center
10:38AM 33.1092 -93.8000 80° East 433 498 29,000  Level Fort Worth Center
10:39AM 33.1300 -93.6553 80° East 438 504 29,000  Level Fort Worth Center
10:40AM 33.1486 -93.5108 81° East 438 504 29,000  Level Fort Worth Center
10:41AM 33.1336 -93.3675 97° East 433 498 29,000  Level Fort Worth Center
10:42AM 33.1122 -93.2222 100° East 433 498 29,000  Level Fort Worth Center
10:43AM 33.0925 -93.0769 99° East 440 506 29,000  Level Fort Worth Center
10:44AM 33.0686 -92.9317 101° East 447 514 29,000  Level Fort Worth Center
10:45AM 33.0489 -92.7867 99° East 447 514 29,000  Level Fort Worth Center
10:46AM 33.0247 -92.6417 101° East 447 514 29,000  Level Fort Worth Center
10:47AM 33.0044 -92.4992 100° East 447 514 29,000  Level Fort Worth Center
10:48AM 32.9822 -92.3542 100° East 447 514 29,000  Level Fort Worth Center
10:50AM 32.9436 -92.1172 101° East 457 526 29,000  Level Memphis Center
10:51AM 32.9183 -91.9683 101° East 452 520 29,000  Level Memphis Center
10:52AM 32.8950 -91.8244 101° East 452 520 29,000  Level Memphis Center
10:53AM 32.8675 -91.6781 103° East 446 513 29,000 -480 Level Memphis Center
10:54AM 32.8481 -91.5369 99° East 446 513 28,100 -960 Descending Memphis Center
10:55AM 32.8264 -91.3906 100° East 451 519 27,100 -600 Descending Memphis Center
10:56AM 32.8025 -91.2444 101° East 451 519 27,000 -60 Descending Memphis Center
10:57AM 32.7783 -91.0986 101° East 451 519 27,000  Level Memphis Center
10:58AM 32.7583 -90.9550 99° East 451 519 27,000  Level Memphis Center
10:59AM 32.7317 -90.8117 102° East 445 512 27,000  Level Memphis Center
11:00AM 32.7050 -90.6633 102° East 445 512 27,000  Level Memphis Center
11:01AM 32.6803 -90.5203 102° East 450 518 27,000  Level Memphis Center
11:02AM 32.6553 -90.3744 101° East 445 512 27,000  Level Memphis Center
11:03AM 32.6322 -90.2292 101° East 445 512 27,000  Level Memphis Center
11:04AM 32.6069 -90.0836 102° East 451 519 27,000  Level Memphis Center
11:05AM 32.5772 -89.9233 102° East 451 519 27,000  Level Memphis Center
11:06AM 32.5536 -89.7781 101° East 451 519 27,000  Level Memphis Center
11:07AM 32.5258 -89.6306 103° East 451 519 27,000  Level Memphis Center
11:08AM 32.5019 -89.4878 101° East 451 519 27,000  Level Memphis Center
11:09AM 32.4756 -89.3378 102° East 451 519 27,000 -180 Level Memphis Center
11:10AM 32.4494 -89.1928 102° East 451 519 26,700 -600 Descending Memphis Center
11:11AM 32.4228 -89.0506 102° East 446 513 25,800 -900 Descending Memphis Center
11:12AM 32.3983 -88.9081 101° East 446 513 24,900 -900 Descending Memphis Center
11:13AM 32.3778 -88.7608 99° East 446 513 24,000 -300 Descending Memphis Center
11:16AM 32.3683 -88.4136 92° East 442 509 24,000  Level Atlanta Center
11:17AM 32.3653 -88.2586 91° East 448 516 24,000  Level Atlanta Center
11:18AM 32.3600 -88.1058 92° East 453 521 24,000 -60 Level Atlanta Center
11:19AM 32.3567 -87.9556 91° East 458 527 23,900 -1,260 Descending Atlanta Center
11:20AM 32.3528 -87.8081 92° East 458 527 21,500 -2,640 Descending Atlanta Center
11:21AM 32.3486 -87.6653 92° East 452 520 18,700 -2,640 Descending Atlanta Center
11:22AM 32.3464 -87.5250 91° East 441 507 16,300 -2,640 Descending Atlanta Center
11:23AM 32.3400 -87.3869 93° East 426 490 13,500 -2,640 Descending Atlanta Center
11:24AM 32.3325 -87.2689 94° East 416 479 11,100 -1,260 Descending Atlanta Center
11:25AM 32.3294 -87.1483 92° East 387 445 11,000 -60 Descending Atlanta Center
11:26AM 32.3261 -87.0350 92° East 361 415 11,000 -360 Level Atlanta Center
11:27AM 32.3222 -86.9292 92° East 335 386 10,300 -1,260 Descending Atlanta Center
11:28AM 32.3183 -86.8333 93° East 311 358 8,500 -1,800 Descending Atlanta Center
11:29AM 32.3161 -86.7422 92° East 295 339 6,700 -1,800 Descending Atlanta Center